createdAt,value
2023-03-19T00:00:27.147Z,12.76
2023-03-19T00:02:53.602Z,12.77
2023-03-19T00:05:20.353Z,12.75
2023-03-19T00:07:46.761Z,12.77
2023-03-19T00:10:13.297Z,12.80
2023-03-19T00:12:39.754Z,12.81
2023-03-19T00:15:08.893Z,12.77
2023-03-19T00:17:35.881Z,12.75
2023-03-19T00:20:02.541Z,12.71
2023-03-19T00:22:28.897Z,12.66
2023-03-19T00:24:55.375Z,12.65
2023-03-19T00:27:21.743Z,12.64
2023-03-19T00:29:48.089Z,12.59
2023-03-19T00:32:14.672Z,12.57
2023-03-19T00:34:41.817Z,12.55
2023-03-19T00:37:08.902Z,12.53
2023-03-19T00:39:35.421Z,12.57
2023-03-19T00:42:02.037Z,12.59
2023-03-19T00:44:28.463Z,12.62
2023-03-19T00:46:54.913Z,12.68
2023-03-19T00:49:21.279Z,12.64
2023-03-19T00:51:47.759Z,12.69
2023-03-19T00:54:14.286Z,12.70
2023-03-19T00:56:41.082Z,12.65
2023-03-19T00:59:07.758Z,12.66
2023-03-19T01:01:34.665Z,12.64
2023-03-19T01:04:01.428Z,12.64
2023-03-19T01:06:28.025Z,12.62
2023-03-19T01:08:54.384Z,12.62
2023-03-19T01:11:20.937Z,12.55
2023-03-19T01:13:47.965Z,12.52
2023-03-19T01:16:14.419Z,12.54
2023-03-19T01:18:41.135Z,12.55
2023-03-19T01:21:08.249Z,12.56
2023-03-19T01:23:34.642Z,12.52
2023-03-19T01:26:01.108Z,12.47
2023-03-19T01:28:27.520Z,12.42
2023-03-19T01:30:58.745Z,12.37
2023-03-19T01:33:25.783Z,12.32
2023-03-19T01:35:52.175Z,12.18
2023-03-19T01:38:19.642Z,12.07
2023-03-19T01:40:47.479Z,11.98
2023-03-19T01:43:18.462Z,11.89
2023-03-19T01:45:45.883Z,11.87
2023-03-19T01:48:33.056Z,11.89
2023-03-19T01:51:00.801Z,11.80
2023-03-19T01:53:31.621Z,11.76
2023-03-19T01:56:11.566Z,11.72
2023-03-19T01:58:40.087Z,11.68
2023-03-19T02:01:06.486Z,11.66
2023-03-19T02:03:33.940Z,11.60
2023-03-19T02:06:00.978Z,11.51
2023-03-19T02:08:28.790Z,11.47
2023-03-19T02:11:00.045Z,11.39
2023-03-19T02:13:27.800Z,11.36
2023-03-19T02:15:55.045Z,11.31
2023-03-19T02:18:21.924Z,11.26
2023-03-19T02:20:56.917Z,11.22
2023-03-19T02:24:02.336Z,11.17
2023-03-19T02:26:30.786Z,11.21
2023-03-19T02:28:57.134Z,11.25
2023-03-19T02:31:23.765Z,11.30
2023-03-19T02:34:11.971Z,11.37
2023-03-19T02:36:44.240Z,11.38
2023-03-19T02:39:21.469Z,11.43
2023-03-19T02:41:48.921Z,11.47
2023-03-19T02:44:19.804Z,11.44
2023-03-19T02:46:46.441Z,11.51
2023-03-19T02:49:13.100Z,11.54
2023-03-19T02:51:39.534Z,11.63
2023-03-19T02:54:06.216Z,11.69
2023-03-19T02:56:32.726Z,11.69
2023-03-19T02:58:59.212Z,11.75
2023-03-19T03:01:25.869Z,11.80
2023-03-19T03:03:52.276Z,11.86
2023-03-19T03:06:18.707Z,11.80
2023-03-19T03:08:45.392Z,11.87
2023-03-19T03:11:11.781Z,11.86
2023-03-19T03:13:38.218Z,11.93
2023-03-19T03:16:04.872Z,11.96
2023-03-19T03:18:31.326Z,12.00
2023-03-19T03:20:57.982Z,12.03
2023-03-19T03:23:24.390Z,12.03
2023-03-19T03:25:52.021Z,12.06
2023-03-19T03:28:19.271Z,12.06
2023-03-19T03:30:46.605Z,12.16
2023-03-19T03:33:13.103Z,12.14
2023-03-19T03:35:39.679Z,12.16
2023-03-19T03:38:06.669Z,12.23
2023-03-19T03:40:34.471Z,12.30
2023-03-19T03:43:01.270Z,12.32
2023-03-19T03:45:27.693Z,12.29
2023-03-19T03:47:54.204Z,12.33
2023-03-19T03:50:20.819Z,12.38
2023-03-19T03:52:47.850Z,12.41
2023-03-19T03:55:14.390Z,12.42
2023-03-19T03:57:40.915Z,12.40
2023-03-19T04:00:08.057Z,12.39
2023-03-19T04:02:34.513Z,12.43
2023-03-19T04:05:01.043Z,12.37
2023-03-19T04:07:27.933Z,12.35
2023-03-19T04:09:55.196Z,12.39
2023-03-19T04:12:21.815Z,12.39
2023-03-19T04:14:48.324Z,12.34
2023-03-19T04:17:14.668Z,12.37
2023-03-19T04:19:41.145Z,12.41
2023-03-19T04:22:08.419Z,12.44
2023-03-19T04:24:35.087Z,12.42
2023-03-19T04:27:01.510Z,12.45
2023-03-19T04:29:27.890Z,12.47
2023-03-19T04:31:54.314Z,12.41
2023-03-19T04:34:20.958Z,12.33
2023-03-19T04:36:47.362Z,12.32
2023-03-19T04:39:13.670Z,12.30
2023-03-19T04:41:40.160Z,12.27
2023-03-19T04:44:07.603Z,12.19
2023-03-19T04:46:34.079Z,12.13
2023-03-19T04:49:00.472Z,12.12
2023-03-19T04:51:27.311Z,12.12
2023-03-19T04:53:53.703Z,12.16
2023-03-19T04:56:20.256Z,12.21
2023-03-19T04:58:46.657Z,12.23
2023-03-19T05:01:13.465Z,12.18
2023-03-19T05:03:40.002Z,12.08
2023-03-19T05:06:06.779Z,12.10
2023-03-19T05:08:33.117Z,12.18
2023-03-19T05:10:59.472Z,12.23
2023-03-19T05:13:25.840Z,12.20
2023-03-19T05:15:54.978Z,12.13
2023-03-19T05:18:21.522Z,12.12
2023-03-19T05:20:48.255Z,12.08
2023-03-19T05:23:14.786Z,12.14
2023-03-19T05:25:41.467Z,12.14
2023-03-19T05:28:08.218Z,12.15
2023-03-19T05:30:35.599Z,12.22
2023-03-19T05:33:03.815Z,12.29
2023-03-19T05:35:30.812Z,12.34
2023-03-19T05:37:57.857Z,12.35
2023-03-19T05:40:24.936Z,12.34
2023-03-19T05:42:51.454Z,12.25
2023-03-19T05:45:18.205Z,12.22
2023-03-19T05:47:47.309Z,12.23
2023-03-19T05:50:13.914Z,12.20
2023-03-19T05:52:40.318Z,12.18
2023-03-19T05:55:07.066Z,12.24
2023-03-19T05:57:33.400Z,12.30
2023-03-19T05:59:59.756Z,12.26
2023-03-19T06:02:26.170Z,12.26
2023-03-19T06:04:52.663Z,12.26
2023-03-19T06:07:19.040Z,12.27
2023-03-19T06:09:45.418Z,12.22
2023-03-19T06:12:11.922Z,12.24
2023-03-19T06:14:38.239Z,12.23
2023-03-19T06:17:04.605Z,12.23
2023-03-19T06:19:31.028Z,12.25
2023-03-19T06:21:57.510Z,12.28
2023-03-19T06:24:23.921Z,12.33
2023-03-19T06:26:50.244Z,12.35
2023-03-19T06:29:16.607Z,12.30
2023-03-19T06:31:43.031Z,12.30
2023-03-19T06:34:09.536Z,12.34
2023-03-19T06:36:35.875Z,12.34
2023-03-19T06:39:03.081Z,12.35
2023-03-19T06:41:29.775Z,12.40
2023-03-19T06:43:56.182Z,12.43
2023-03-19T06:46:23.205Z,12.48
2023-03-19T06:48:49.719Z,12.43
2023-03-19T06:51:16.217Z,12.38
2023-03-19T06:53:42.581Z,12.42
2023-03-19T06:56:10.248Z,12.40
2023-03-19T06:58:36.942Z,12.43
2023-03-19T07:01:03.887Z,12.47
2023-03-19T07:03:30.634Z,12.50
2023-03-19T07:05:57.076Z,12.49
2023-03-19T07:08:23.615Z,12.54
2023-03-19T07:10:50.093Z,12.58
2023-03-19T07:13:16.426Z,12.54
2023-03-19T07:15:42.804Z,12.57
2023-03-19T07:18:09.244Z,12.52
2023-03-19T07:20:36.246Z,12.53
2023-03-19T07:23:03.255Z,12.48
2023-03-19T07:25:29.701Z,12.55
2023-03-19T07:27:56.270Z,12.59
2023-03-19T07:30:22.726Z,12.59
2023-03-19T07:32:49.138Z,12.57
2023-03-19T07:35:15.551Z,12.55
2023-03-19T07:37:42.133Z,12.50
2023-03-19T07:40:09.875Z,12.55
2023-03-19T07:42:36.507Z,12.62
2023-03-19T07:45:04.440Z,12.58
2023-03-19T07:47:30.876Z,12.59
2023-03-19T07:49:58.034Z,12.67
2023-03-19T07:52:25.862Z,12.65
2023-03-19T07:54:52.938Z,12.69
2023-03-19T07:57:19.758Z,12.73
2023-03-19T07:59:46.466Z,12.73
2023-03-19T08:02:13.251Z,12.76
2023-03-19T08:04:40.142Z,12.77
2023-03-19T08:07:06.863Z,12.86
2023-03-19T08:09:34.044Z,12.96
2023-03-19T08:12:00.387Z,12.99
2023-03-19T08:14:26.847Z,13.01
2023-03-19T08:16:53.278Z,13.01
2023-03-19T08:19:19.664Z,13.10
2023-03-19T08:21:46.492Z,13.17
2023-03-19T08:24:12.912Z,13.16
2023-03-19T08:26:39.358Z,13.23
2023-03-19T08:29:06.492Z,13.36
2023-03-19T08:31:33.030Z,13.45
2023-03-19T08:34:10.234Z,13.45
2023-03-19T08:36:37.087Z,13.46
2023-03-19T08:39:04.190Z,13.49
2023-03-19T08:41:31.172Z,13.50
2023-03-19T08:43:57.501Z,13.49
2023-03-19T08:46:23.844Z,13.50
2023-03-19T08:48:50.278Z,13.43
2023-03-19T08:51:16.631Z,13.55
2023-03-19T08:53:43.027Z,13.51
2023-03-19T08:56:09.369Z,13.53
2023-03-19T08:58:35.946Z,13.61
2023-03-19T09:01:05.128Z,13.68
2023-03-19T09:03:32.201Z,13.80
2023-03-19T09:06:01.130Z,13.83
2023-03-19T09:08:28.632Z,13.84
2023-03-19T09:10:56.162Z,13.88
2023-03-19T09:13:23.276Z,13.96
2023-03-19T09:15:50.716Z,13.95
2023-03-19T09:18:18.229Z,14.05
2023-03-19T09:20:45.245Z,14.15
2023-03-19T09:23:11.717Z,14.15
2023-03-19T09:25:38.086Z,14.20
2023-03-19T09:28:04.681Z,14.20
2023-03-19T09:30:31.786Z,14.27
2023-03-19T09:32:58.324Z,14.46
2023-03-19T09:35:24.943Z,14.28
2023-03-19T09:37:52.127Z,14.50
2023-03-19T09:40:33.652Z,14.71
2023-03-19T09:43:33.480Z,14.75
2023-03-19T09:46:03.366Z,14.59
2023-03-19T09:48:46.887Z,14.59
2023-03-19T09:51:26.000Z,14.56
2023-03-19T09:54:02.773Z,14.60
2023-03-19T09:56:30.507Z,14.63
2023-03-19T09:58:56.918Z,14.58
2023-03-19T10:01:47.425Z,14.60
2023-03-19T10:04:37.408Z,14.47
2023-03-19T10:07:18.846Z,14.40
2023-03-19T10:10:18.321Z,14.36
2023-03-19T10:12:53.944Z,14.41
2023-03-19T10:15:31.028Z,14.42
2023-03-19T10:18:02.693Z,14.43
2023-03-19T10:20:35.411Z,14.51
2023-03-19T10:23:37.470Z,14.52
2023-03-19T10:26:08.726Z,14.59
2023-03-19T10:28:36.372Z,14.63
2023-03-19T10:31:25.863Z,14.54
2023-03-19T10:34:07.710Z,14.53
2023-03-19T10:36:36.169Z,14.45
2023-03-19T10:39:06.905Z,14.49
2023-03-19T10:41:56.566Z,14.55
2023-03-19T10:44:34.417Z,14.45
2023-03-19T10:47:11.811Z,14.40
2023-03-19T10:49:38.308Z,14.47
2023-03-19T10:52:06.032Z,14.47
2023-03-19T10:54:32.382Z,14.40
2023-03-19T10:57:00.359Z,14.46
2023-03-19T10:59:29.699Z,14.32
2023-03-19T11:02:17.736Z,14.35
2023-03-19T11:04:44.299Z,14.31
2023-03-19T11:07:14.136Z,14.27
2023-03-19T11:09:44.151Z,14.37
2023-03-19T11:12:18.804Z,14.37
2023-03-19T11:14:53.898Z,14.55
2023-03-19T11:17:27.482Z,14.76
2023-03-19T11:19:59.104Z,14.95
2023-03-19T11:22:28.466Z,14.97
2023-03-19T11:25:02.322Z,14.98
2023-03-19T11:27:35.111Z,14.98
2023-03-19T11:30:03.979Z,15.05
2023-03-19T11:32:46.622Z,15.11
2023-03-19T11:35:19.854Z,15.19
2023-03-19T11:37:51.912Z,15.14
2023-03-19T11:40:34.109Z,15.05
2023-03-19T11:43:11.774Z,15.04
2023-03-19T11:45:56.686Z,15.02
2023-03-19T11:49:00.737Z,15.04
2023-03-19T11:51:40.204Z,15.10
2023-03-19T11:54:25.293Z,15.01
2023-03-19T11:57:00.271Z,15.00
2023-03-19T11:59:56.261Z,14.97
2023-03-19T12:02:32.372Z,15.03
2023-03-19T12:05:01.759Z,15.20
2023-03-19T12:08:20.031Z,15.32
2023-03-19T12:10:59.062Z,15.64
2023-03-19T12:13:34.634Z,15.89
2023-03-19T12:16:19.903Z,16.14
2023-03-19T12:18:59.769Z,16.31
2023-03-19T12:21:34.943Z,16.49
2023-03-19T12:24:15.146Z,16.95
2023-03-19T12:27:04.286Z,16.88
2023-03-19T12:30:18.211Z,17.14
2023-03-19T12:33:03.305Z,17.58
2023-03-19T12:35:37.566Z,17.49
2023-03-19T12:38:25.447Z,17.37
2023-03-19T12:41:07.757Z,17.78
2023-03-19T12:43:54.353Z,18.18
2023-03-19T12:46:30.026Z,18.08
2023-03-19T12:49:14.230Z,17.76
2023-03-19T12:51:46.171Z,17.68
2023-03-19T12:54:23.683Z,17.71
2023-03-19T12:57:18.083Z,17.55
2023-03-19T13:00:07.050Z,17.40
2023-03-19T13:02:54.468Z,17.28
2023-03-19T13:05:52.989Z,17.61
2023-03-19T13:08:33.369Z,18.12
2023-03-19T13:11:02.763Z,18.32
2023-03-19T13:14:02.089Z,17.81
2023-03-19T13:17:13.529Z,17.47
2023-03-19T13:19:53.969Z,17.48
2023-03-19T13:22:32.789Z,17.72
2023-03-19T13:25:01.656Z,17.83
2023-03-19T13:27:34.004Z,17.74
2023-03-19T13:30:07.864Z,17.79
2023-03-19T13:32:47.894Z,17.96
2023-03-19T13:35:28.541Z,18.06
2023-03-19T13:38:00.117Z,17.55
2023-03-19T13:40:38.244Z,17.24
2023-03-19T13:43:04.708Z,17.07
2023-03-19T13:45:38.266Z,16.99
2023-03-19T13:48:35.993Z,16.94
2023-03-19T13:51:27.214Z,16.82
2023-03-19T13:54:16.344Z,16.60
2023-03-19T13:57:05.806Z,16.57
2023-03-19T13:59:37.703Z,16.37
2023-03-19T14:02:24.158Z,16.34
2023-03-19T14:04:57.284Z,16.24
2023-03-19T14:07:42.319Z,16.25
2023-03-19T14:10:31.711Z,16.45
2023-03-19T14:13:06.967Z,16.51
2023-03-19T14:15:35.241Z,16.61
2023-03-19T14:18:05.790Z,16.50
2023-03-19T14:20:40.509Z,16.64
2023-03-19T14:23:17.879Z,16.72
2023-03-19T14:26:12.364Z,16.68
2023-03-19T14:28:44.715Z,17.56
2023-03-19T14:31:35.190Z,18.53
2023-03-19T14:34:16.579Z,19.35
2023-03-19T14:36:48.909Z,19.16
2023-03-19T14:39:27.899Z,19.52
2023-03-19T14:42:24.461Z,19.61
2023-03-19T14:45:14.269Z,20.16
2023-03-19T14:47:55.500Z,20.35
2023-03-19T14:50:26.172Z,20.04
2023-03-19T14:52:58.278Z,18.97
2023-03-19T14:55:34.323Z,18.03
2023-03-19T14:58:02.067Z,17.84
2023-03-19T15:00:28.706Z,17.36
2023-03-19T15:02:56.114Z,17.00
2023-03-19T15:05:27.602Z,16.52
2023-03-19T15:08:12.265Z,16.29
2023-03-19T15:10:54.954Z,16.18
2023-03-19T15:13:30.521Z,15.99
2023-03-19T15:16:20.206Z,15.77
2023-03-19T15:18:46.663Z,15.80
2023-03-19T15:21:13.106Z,15.92
2023-03-19T15:23:41.699Z,15.66
2023-03-19T15:26:11.637Z,15.66
2023-03-19T15:28:54.011Z,15.73
2023-03-19T15:31:38.363Z,15.62
2023-03-19T15:34:27.859Z,15.65
2023-03-19T15:37:07.905Z,15.55
2023-03-19T15:39:41.722Z,15.42
2023-03-19T15:42:08.619Z,15.37
2023-03-19T15:44:58.217Z,15.18
2023-03-19T15:47:29.830Z,14.98
2023-03-19T15:50:01.784Z,14.86
2023-03-19T15:52:33.460Z,14.77
2023-03-19T15:55:02.232Z,14.44
2023-03-19T15:57:29.150Z,14.31
2023-03-19T15:59:59.007Z,14.08
2023-03-19T16:02:33.569Z,14.10
2023-03-19T16:05:21.055Z,14.09
2023-03-19T16:07:54.829Z,14.13
2023-03-19T16:10:31.382Z,14.15
2023-03-19T16:13:03.766Z,14.23
2023-03-19T16:15:40.492Z,14.19
2023-03-19T16:18:23.143Z,13.93
2023-03-19T16:21:07.203Z,13.90
2023-03-19T16:23:40.924Z,13.90
2023-03-19T16:26:23.076Z,13.80
2023-03-19T16:29:00.193Z,13.94
2023-03-19T16:31:31.847Z,13.98
2023-03-19T16:33:58.345Z,14.03
2023-03-19T16:36:29.968Z,14.06
2023-03-19T16:39:24.327Z,14.09
2023-03-19T16:42:10.953Z,14.09
2023-03-19T16:44:42.094Z,14.04
2023-03-19T16:47:11.042Z,14.08
2023-03-19T16:49:37.493Z,14.06
2023-03-19T16:52:05.288Z,14.06
2023-03-19T16:54:31.843Z,14.00
2023-03-19T16:56:58.238Z,14.02
2023-03-19T16:59:29.148Z,14.08
2023-03-19T17:01:55.822Z,14.02
2023-03-19T17:04:23.733Z,14.05
2023-03-19T17:06:50.602Z,13.93
2023-03-19T17:09:16.986Z,13.83
2023-03-19T17:11:43.977Z,13.65
2023-03-19T17:14:18.424Z,13.74
2023-03-19T17:16:50.357Z,13.79
2023-03-19T17:19:34.405Z,13.79
2023-03-19T17:22:01.796Z,13.64
2023-03-19T17:24:37.366Z,13.61
2023-03-19T17:27:04.458Z,13.54
2023-03-19T17:29:31.615Z,13.63
2023-03-19T17:32:01.788Z,13.46
2023-03-19T17:34:32.947Z,13.43
2023-03-19T17:37:01.412Z,13.52
2023-03-19T17:39:31.937Z,13.49
2023-03-19T17:41:59.139Z,13.48
2023-03-19T17:44:25.821Z,13.43
2023-03-19T17:46:54.118Z,13.47
2023-03-19T17:49:28.960Z,13.44
2023-03-19T17:51:56.377Z,13.43
2023-03-19T17:54:22.756Z,13.41
2023-03-19T17:56:49.516Z,13.42
2023-03-19T17:59:15.866Z,13.45
2023-03-19T18:01:47.009Z,13.45
2023-03-19T18:04:16.122Z,13.42
2023-03-19T18:06:46.408Z,13.41
2023-03-19T18:09:22.230Z,13.51
2023-03-19T18:11:48.732Z,13.44
2023-03-19T18:14:15.563Z,13.44
2023-03-19T18:16:42.683Z,13.47
2023-03-19T18:19:37.207Z,13.48
2023-03-19T18:22:14.857Z,13.45
2023-03-19T18:24:41.534Z,13.44
2023-03-19T18:27:08.077Z,13.43
2023-03-19T18:29:34.427Z,13.52
2023-03-19T18:32:11.520Z,13.45
2023-03-19T18:34:38.195Z,13.45
2023-03-19T18:37:04.768Z,13.39
2023-03-19T18:39:32.765Z,13.39
2023-03-19T18:41:59.102Z,13.40
2023-03-19T18:44:25.622Z,13.37
2023-03-19T18:46:51.963Z,13.33
2023-03-19T18:49:26.506Z,13.36
2023-03-19T18:52:02.649Z,13.29
2023-03-19T18:54:33.344Z,13.25
2023-03-19T18:57:01.816Z,13.25
2023-03-19T18:59:32.886Z,13.31
2023-03-19T19:02:25.087Z,13.30
2023-03-19T19:04:51.424Z,13.27
2023-03-19T19:07:17.925Z,13.33
2023-03-19T19:09:44.400Z,13.32
2023-03-19T19:12:18.297Z,13.34
2023-03-19T19:14:45.724Z,13.27
2023-03-19T19:17:21.286Z,13.22
2023-03-19T19:19:47.726Z,13.22
2023-03-19T19:22:16.332Z,13.18
2023-03-19T19:24:43.903Z,13.20
2023-03-19T19:27:17.387Z,13.21
2023-03-19T19:29:43.977Z,13.17
2023-03-19T19:32:32.275Z,13.07
2023-03-19T19:34:58.681Z,13.04
2023-03-19T19:37:25.311Z,12.98
2023-03-19T19:39:52.246Z,12.89
2023-03-19T19:42:21.148Z,12.89
2023-03-19T19:44:53.228Z,12.91
2023-03-19T19:47:19.629Z,12.88
2023-03-19T19:49:46.175Z,12.85
2023-03-19T19:52:17.962Z,12.82
2023-03-19T19:54:45.592Z,12.83
2023-03-19T19:57:24.440Z,12.80
2023-03-19T19:59:51.731Z,12.71
2023-03-19T20:02:26.793Z,12.72
2023-03-19T20:04:53.634Z,12.70
2023-03-19T20:07:20.620Z,12.72
2023-03-19T20:09:47.957Z,12.76
2023-03-19T20:12:24.627Z,12.75
2023-03-19T20:14:51.388Z,12.79
2023-03-19T20:17:20.726Z,12.82
2023-03-19T20:19:47.924Z,12.84
2023-03-19T20:22:14.352Z,12.75
2023-03-19T20:24:41.517Z,12.68
2023-03-19T20:27:31.345Z,12.66
2023-03-19T20:29:57.763Z,12.66
2023-03-19T20:32:33.449Z,12.65
2023-03-19T20:35:02.754Z,12.60
2023-03-19T20:37:30.046Z,12.62
2023-03-19T20:39:56.424Z,12.66
2023-03-19T20:42:23.412Z,12.62
2023-03-19T20:44:55.540Z,12.63
2023-03-19T20:47:22.061Z,12.61
2023-03-19T20:49:48.603Z,12.63
2023-03-19T20:52:16.287Z,12.67
2023-03-19T20:54:43.092Z,12.66
2023-03-19T20:57:14.776Z,12.72
2023-03-19T20:59:44.314Z,12.72
2023-03-19T21:02:19.477Z,12.73
2023-03-19T21:04:46.509Z,12.70
2023-03-19T21:07:23.600Z,12.72
2023-03-19T21:09:49.999Z,12.72
2023-03-19T21:12:36.763Z,12.72
2023-03-19T21:15:03.216Z,12.64
2023-03-19T21:17:29.635Z,12.57
2023-03-19T21:19:56.775Z,12.52
2023-03-19T21:22:28.495Z,12.53
2023-03-19T21:25:06.110Z,12.47
2023-03-19T21:27:35.645Z,12.43
2023-03-19T21:30:04.452Z,12.37
2023-03-19T21:32:31.932Z,12.40
2023-03-19T21:34:58.363Z,12.40
2023-03-19T21:37:24.764Z,12.37
2023-03-19T21:39:51.210Z,12.39
2023-03-19T21:42:22.519Z,12.42
2023-03-19T21:44:56.868Z,12.40
2023-03-19T21:47:23.253Z,12.41
2023-03-19T21:49:49.873Z,12.30
2023-03-19T21:52:18.770Z,12.22
2023-03-19T21:54:45.184Z,12.23
2023-03-19T21:57:16.432Z,12.23
2023-03-19T21:59:45.475Z,12.18
2023-03-19T22:02:27.059Z,12.19
2023-03-19T22:04:53.542Z,12.14
2023-03-19T22:07:20.025Z,12.18
2023-03-19T22:09:46.380Z,12.16
2023-03-19T22:12:25.896Z,12.17
2023-03-19T22:14:52.427Z,12.17
2023-03-19T22:17:26.478Z,12.22
2023-03-19T22:19:52.981Z,12.23
2023-03-19T22:22:19.419Z,12.25
2023-03-19T22:24:45.975Z,12.18
2023-03-19T22:27:16.158Z,12.16
2023-03-19T22:29:44.699Z,12.16
2023-03-19T22:32:18.657Z,12.12
2023-03-19T22:34:45.290Z,12.05
2023-03-19T22:37:28.450Z,12.02
2023-03-19T22:39:55.435Z,12.06
2023-03-19T22:42:24.751Z,12.12
2023-03-19T22:44:51.077Z,12.07
2023-03-19T22:47:24.654Z,12.00
2023-03-19T22:49:51.308Z,11.92
2023-03-19T22:52:18.103Z,11.84
2023-03-19T22:54:44.520Z,11.84
2023-03-19T22:57:17.283Z,11.74
2023-03-19T22:59:44.442Z,11.70
2023-03-19T23:02:14.653Z,11.71
2023-03-19T23:04:41.412Z,11.67
2023-03-19T23:07:12.639Z,11.65
2023-03-19T23:09:39.030Z,11.50
2023-03-19T23:12:07.365Z,11.45
2023-03-19T23:14:33.949Z,11.43
2023-03-19T23:17:06.686Z,11.36
2023-03-19T23:19:35.613Z,11.18
2023-03-19T23:22:04.989Z,11.15
2023-03-19T23:24:31.600Z,11.18
2023-03-19T23:26:59.835Z,11.17
2023-03-19T23:29:41.838Z,11.12
2023-03-19T23:32:10.635Z,11.11
2023-03-19T23:34:49.697Z,11.09
2023-03-19T23:37:24.391Z,11.12
2023-03-19T23:39:51.032Z,11.14
2023-03-19T23:42:27.792Z,11.10
2023-03-19T23:44:57.839Z,11.02
2023-03-19T23:47:24.306Z,10.97
2023-03-19T23:49:51.095Z,10.90
2023-03-19T23:52:17.523Z,10.88
2023-03-19T23:54:43.874Z,10.83
2023-03-19T23:57:15.475Z,10.86
2023-03-19T23:59:44.089Z,10.83
